createdAt,value
2023-01-25T00:01:33.813Z,92.91
2023-01-25T00:04:07.518Z,93.23
2023-01-25T00:06:39.654Z,92.82
2023-01-25T00:09:15.989Z,92.07
2023-01-25T00:11:50.115Z,91.85
2023-01-25T00:14:20.632Z,92.01
2023-01-25T00:16:50.383Z,93.20
2023-01-25T00:19:21.855Z,93.73
2023-01-25T00:21:53.871Z,93.32
2023-01-25T00:24:26.730Z,92.97
2023-01-25T00:26:58.421Z,93.16
2023-01-25T00:29:26.777Z,93.48
2023-01-25T00:32:19.872Z,93.93
2023-01-25T00:34:51.255Z,93.34
2023-01-25T00:37:30.764Z,93.00
2023-01-25T00:40:01.729Z,93.14
2023-01-25T00:42:39.650Z,91.29
2023-01-25T00:45:13.433Z,92.66
2023-01-25T00:47:43.557Z,93.05
2023-01-25T00:50:15.648Z,92.19
2023-01-25T00:52:47.928Z,93.52
2023-01-25T00:55:17.907Z,93.71
2023-01-25T00:57:48.886Z,90.84
2023-01-25T01:00:23.664Z,92.48
2023-01-25T01:02:53.187Z,92.34
2023-01-25T01:05:23.408Z,93.95
2023-01-25T01:07:55.171Z,94.00
2023-01-25T01:10:23.623Z,93.68
2023-01-25T01:12:55.623Z,93.48
2023-01-25T01:15:27.342Z,93.15
2023-01-25T01:18:00.742Z,93.26
2023-01-25T01:20:30.397Z,92.94
2023-01-25T01:23:01.620Z,94.23
2023-01-25T01:25:38.093Z,93.45
2023-01-25T01:28:13.416Z,92.72
2023-01-25T01:30:42.772Z,93.12
2023-01-25T01:33:15.092Z,92.43
2023-01-25T01:35:48.068Z,92.63
2023-01-25T01:38:18.555Z,91.20
2023-01-25T01:40:50.408Z,93.08
2023-01-25T01:43:32.167Z,92.47
2023-01-25T01:46:06.774Z,92.82
2023-01-25T01:48:41.542Z,92.58
2023-01-25T01:51:19.858Z,92.00
2023-01-25T01:53:54.478Z,92.86
2023-01-25T01:56:34.713Z,93.74
2023-01-25T01:59:10.957Z,92.91
2023-01-25T02:01:41.843Z,92.90
2023-01-25T02:04:19.248Z,94.23
2023-01-25T02:06:54.638Z,92.83
2023-01-25T02:09:28.206Z,93.45
2023-01-25T02:11:59.118Z,93.37
2023-01-25T02:14:44.041Z,93.22
2023-01-25T02:17:14.954Z,93.21
2023-01-25T02:19:50.879Z,93.38
2023-01-25T02:22:30.248Z,94.35
2023-01-25T02:25:07.619Z,93.27
2023-01-25T02:27:40.591Z,93.32
2023-01-25T02:30:12.797Z,94.12
2023-01-25T02:32:47.037Z,94.10
2023-01-25T02:35:20.640Z,93.73
2023-01-25T02:37:52.132Z,94.43
2023-01-25T02:40:26.864Z,94.74
2023-01-25T02:42:58.426Z,94.85
2023-01-25T02:45:33.128Z,95.19
2023-01-25T02:48:01.480Z,94.19
2023-01-25T02:50:31.759Z,94.51
2023-01-25T02:53:01.914Z,95.57
2023-01-25T02:55:37.219Z,95.41
2023-01-25T02:58:17.905Z,94.03
2023-01-25T03:00:47.032Z,94.46
2023-01-25T03:03:25.764Z,94.16
2023-01-25T03:06:04.197Z,94.81
2023-01-25T03:08:33.624Z,95.32
2023-01-25T03:11:17.508Z,96.42
2023-01-25T03:13:48.690Z,95.30
2023-01-25T03:16:20.909Z,95.08
2023-01-25T03:18:55.601Z,95.03
2023-01-25T03:21:25.974Z,94.71
2023-01-25T03:24:00.981Z,94.78
2023-01-25T03:26:54.144Z,95.43
2023-01-25T03:29:26.837Z,94.99
2023-01-25T03:31:55.943Z,95.00
2023-01-25T03:34:27.372Z,93.35
2023-01-25T03:36:58.640Z,93.95
2023-01-25T03:39:36.514Z,95.22
2023-01-25T03:42:08.849Z,95.49
2023-01-25T03:44:41.289Z,94.50
2023-01-25T03:47:11.174Z,94.64
2023-01-25T03:49:43.112Z,94.49
2023-01-25T03:52:14.537Z,95.10
2023-01-25T03:54:45.245Z,95.83
2023-01-25T03:57:22.150Z,96.03
2023-01-25T04:00:05.556Z,95.31
2023-01-25T04:02:55.039Z,94.91
2023-01-25T04:05:25.704Z,95.06
2023-01-25T04:07:57.922Z,95.45
2023-01-25T04:10:36.723Z,93.97
2023-01-25T04:13:10.035Z,94.20
2023-01-25T04:15:44.128Z,95.53
2023-01-25T04:18:44.751Z,95.65
2023-01-25T04:21:18.529Z,96.05
2023-01-25T04:23:48.980Z,96.21
2023-01-25T04:26:21.718Z,96.53
2023-01-25T04:29:00.746Z,96.57
2023-01-25T04:31:30.086Z,96.54
2023-01-25T04:34:00.919Z,96.49
2023-01-25T04:36:30.865Z,96.92
2023-01-25T04:39:01.018Z,96.17
2023-01-25T04:41:33.572Z,96.57
2023-01-25T04:44:15.004Z,96.90
2023-01-25T04:46:49.582Z,97.17
2023-01-25T04:49:24.807Z,97.37
2023-01-25T04:52:02.819Z,98.03
2023-01-25T04:54:34.745Z,97.37
2023-01-25T04:57:05.285Z,98.11
2023-01-25T04:59:37.547Z,98.25
2023-01-25T05:02:19.846Z,98.50
2023-01-25T05:04:49.571Z,97.88
2023-01-25T05:07:23.946Z,98.92
2023-01-25T05:09:56.448Z,98.62
2023-01-25T05:12:36.937Z,99.26
2023-01-25T05:15:24.130Z,99.98
2023-01-25T05:17:55.755Z,99.74
2023-01-25T05:20:25.361Z,98.02
2023-01-25T05:22:56.282Z,98.23
2023-01-25T05:25:43.512Z,98.35
2023-01-25T05:28:26.411Z,98.53
2023-01-25T05:31:27.478Z,97.27
2023-01-25T05:33:55.933Z,97.55
2023-01-25T05:36:25.219Z,98.23
2023-01-25T05:39:00.030Z,98.87
2023-01-25T05:41:40.263Z,97.72
2023-01-25T05:44:13.929Z,97.39
2023-01-25T05:46:59.963Z,94.84
2023-01-25T05:49:29.204Z,96.71
2023-01-25T05:52:01.478Z,97.71
2023-01-25T05:54:30.013Z,97.38
2023-01-25T05:57:05.180Z,97.27
2023-01-25T05:59:36.207Z,96.41
2023-01-25T06:02:21.615Z,96.92
2023-01-25T06:04:58.574Z,96.91
2023-01-25T06:07:28.941Z,96.74
2023-01-25T06:10:05.309Z,96.31
2023-01-25T06:12:43.166Z,95.07
2023-01-25T06:15:17.399Z,95.78
2023-01-25T06:17:58.901Z,96.04
2023-01-25T06:20:50.113Z,95.99
2023-01-25T06:23:21.075Z,96.59
2023-01-25T06:25:54.809Z,96.22
2023-01-25T06:28:23.047Z,97.65
2023-01-25T06:30:55.070Z,97.57
2023-01-25T06:33:32.818Z,96.80
2023-01-25T06:36:03.739Z,96.27
2023-01-25T06:38:37.579Z,97.10
2023-01-25T06:41:12.865Z,97.64
2023-01-25T06:43:43.660Z,95.56
2023-01-25T06:46:14.487Z,96.13
2023-01-25T06:48:52.519Z,96.41
2023-01-25T06:51:20.631Z,95.77
2023-01-25T06:53:51.048Z,97.30
2023-01-25T06:56:23.288Z,97.74
2023-01-25T06:58:54.700Z,97.06
2023-01-25T07:01:27.659Z,97.66
2023-01-25T07:04:00.874Z,97.41
2023-01-25T07:06:36.680Z,96.97
2023-01-25T07:09:06.022Z,97.72
2023-01-25T07:11:41.135Z,97.10
2023-01-25T07:14:10.596Z,97.97
2023-01-25T07:16:42.749Z,96.74
2023-01-25T07:19:24.736Z,96.39
2023-01-25T07:21:56.434Z,96.67
2023-01-25T07:24:30.928Z,97.76
2023-01-25T07:27:01.184Z,97.37
2023-01-25T07:29:38.318Z,97.32
2023-01-25T07:32:10.524Z,96.27
2023-01-25T07:34:53.688Z,96.61
2023-01-25T07:37:22.393Z,97.29
2023-01-25T07:39:58.342Z,96.26
2023-01-25T07:42:35.533Z,95.21
2023-01-25T07:45:17.351Z,96.09
2023-01-25T07:47:55.456Z,96.81
2023-01-25T07:50:33.771Z,96.56
2023-01-25T07:53:18.949Z,97.38
2023-01-25T07:55:48.345Z,95.98
2023-01-25T07:58:21.108Z,97.08
2023-01-25T08:00:50.413Z,97.15
2023-01-25T08:03:22.305Z,97.08
2023-01-25T08:05:57.071Z,97.90
2023-01-25T08:08:26.135Z,97.25
2023-01-25T08:10:57.684Z,95.00
2023-01-25T08:13:29.822Z,96.32
2023-01-25T08:16:04.242Z,95.43
2023-01-25T08:18:35.980Z,96.29
2023-01-25T08:21:10.485Z,95.58
2023-01-25T08:23:43.151Z,96.14
2023-01-25T08:26:16.885Z,96.19
2023-01-25T08:28:53.286Z,96.34
2023-01-25T08:31:33.004Z,95.85
2023-01-25T08:34:04.108Z,95.76
2023-01-25T08:36:35.855Z,95.47
2023-01-25T08:39:09.098Z,95.34
2023-01-25T08:41:42.695Z,95.24
2023-01-25T08:44:11.410Z,95.96
2023-01-25T08:46:43.098Z,94.02
2023-01-25T08:49:12.541Z,94.05
2023-01-25T08:52:01.914Z,94.25
2023-01-25T08:54:43.130Z,95.44
2023-01-25T08:57:15.604Z,94.58
2023-01-25T08:59:49.806Z,95.15
2023-01-25T09:02:21.417Z,94.05
2023-01-25T09:04:52.888Z,93.85
2023-01-25T09:07:22.614Z,95.04
2023-01-25T09:09:51.795Z,95.00
2023-01-25T09:12:29.214Z,94.76
2023-01-25T09:15:03.193Z,93.48
2023-01-25T09:17:35.271Z,94.24
2023-01-25T09:20:17.340Z,94.00
2023-01-25T09:22:52.532Z,93.97
2023-01-25T09:25:22.748Z,94.90
2023-01-25T09:27:51.832Z,94.40
2023-01-25T09:30:37.219Z,93.66
2023-01-25T09:33:19.954Z,95.26
2023-01-25T09:35:53.544Z,94.46
2023-01-25T09:38:28.314Z,94.77
2023-01-25T09:41:12.010Z,94.74
2023-01-25T09:44:13.605Z,94.56
2023-01-25T09:46:51.739Z,95.19
2023-01-25T09:49:49.675Z,94.18
2023-01-25T09:52:54.699Z,94.25
2023-01-25T09:55:27.705Z,93.98
2023-01-25T09:58:00.405Z,93.53
2023-01-25T10:00:37.495Z,93.54
2023-01-25T10:03:17.960Z,94.51
2023-01-25T10:05:49.166Z,94.50
2023-01-25T10:08:24.034Z,94.77
2023-01-25T10:11:03.842Z,95.42
2023-01-25T10:13:37.412Z,94.50
2023-01-25T10:16:25.071Z,93.80
2023-01-25T10:19:04.777Z,94.28
2023-01-25T10:21:38.197Z,95.41
2023-01-25T10:24:52.321Z,94.52
2023-01-25T10:27:37.447Z,94.44
2023-01-25T10:30:24.960Z,94.72
2023-01-25T10:33:05.094Z,94.74
2023-01-25T10:35:43.234Z,95.67
2023-01-25T10:38:21.210Z,94.54
2023-01-25T10:40:54.702Z,94.31
2023-01-25T10:43:30.357Z,94.81
2023-01-25T10:46:02.330Z,94.45
2023-01-25T10:48:37.912Z,94.63
2023-01-25T10:51:08.691Z,94.03
2023-01-25T10:53:43.900Z,93.14
2023-01-25T10:56:31.582Z,94.05
2023-01-25T10:59:31.860Z,94.38
2023-01-25T11:02:45.054Z,94.32
2023-01-25T11:05:48.106Z,93.15
2023-01-25T11:08:23.962Z,94.58
2023-01-25T11:10:55.331Z,94.83
2023-01-25T11:13:34.015Z,92.91
2023-01-25T11:16:24.620Z,92.98
2023-01-25T11:19:01.251Z,92.78
2023-01-25T11:21:37.533Z,93.61
2023-01-25T11:24:22.575Z,93.72
2023-01-25T11:26:51.359Z,93.91
2023-01-25T11:29:26.435Z,94.61
2023-01-25T11:32:05.712Z,94.53
2023-01-25T11:34:35.212Z,94.58
2023-01-25T11:37:37.850Z,94.11
2023-01-25T11:40:20.971Z,93.85
2023-01-25T11:43:01.239Z,94.35
2023-01-25T11:45:56.393Z,93.94
2023-01-25T11:48:54.642Z,92.86
2023-01-25T11:51:28.056Z,95.03
2023-01-25T11:54:30.639Z,95.09
2023-01-25T11:57:09.520Z,95.56
2023-01-25T11:59:55.414Z,94.38
2023-01-25T12:02:50.594Z,93.57
2023-01-25T12:05:40.293Z,93.86
2023-01-25T12:08:21.970Z,93.74
2023-01-25T12:10:58.795Z,94.71
2023-01-25T12:13:35.706Z,94.62
2023-01-25T12:16:32.955Z,94.76
2023-01-25T12:19:29.434Z,93.10
2023-01-25T12:22:10.212Z,92.39
2023-01-25T12:24:48.390Z,92.88
2023-01-25T12:27:37.004Z,94.05
2023-01-25T12:30:14.696Z,93.75
2023-01-25T12:32:49.721Z,93.70
2023-01-25T12:35:34.841Z,93.89
2023-01-25T12:38:14.149Z,92.87
2023-01-25T12:40:48.508Z,94.00
2023-01-25T12:43:27.642Z,94.76
2023-01-25T12:45:57.390Z,95.30
2023-01-25T12:48:33.471Z,93.60
2023-01-25T12:51:10.085Z,94.27
2023-01-25T12:53:42.759Z,94.71
2023-01-25T12:56:23.497Z,94.20
2023-01-25T12:58:56.100Z,94.72
2023-01-25T13:01:32.192Z,94.29
2023-01-25T13:04:23.527Z,94.81
2023-01-25T13:07:01.225Z,94.03
2023-01-25T13:09:46.389Z,94.79
2023-01-25T13:12:17.481Z,95.72
2023-01-25T13:14:49.135Z,94.83
2023-01-25T13:17:24.641Z,95.25
2023-01-25T13:20:02.035Z,94.85
2023-01-25T13:23:01.896Z,94.51
2023-01-25T13:25:34.097Z,95.06
2023-01-25T13:28:40.046Z,95.79
2023-01-25T13:31:11.417Z,96.66
2023-01-25T13:33:40.516Z,95.60
2023-01-25T13:37:06.416Z,95.50
2023-01-25T13:39:48.072Z,94.89
2023-01-25T13:42:27.666Z,95.14
2023-01-25T13:45:02.608Z,95.00
2023-01-25T13:47:42.577Z,94.86
2023-01-25T13:50:26.746Z,95.23
2023-01-25T13:53:01.754Z,95.19
2023-01-25T13:55:39.692Z,95.22
2023-01-25T13:58:21.246Z,95.23
2023-01-25T14:00:55.369Z,94.88
2023-01-25T14:03:29.319Z,94.83
2023-01-25T14:06:07.554Z,95.39
2023-01-25T14:08:37.058Z,95.61
2023-01-25T14:11:08.201Z,94.70
2023-01-25T14:13:44.758Z,95.67
2023-01-25T14:16:15.981Z,95.30
2023-01-25T14:18:45.491Z,95.79
2023-01-25T14:21:23.493Z,95.86
2023-01-25T14:23:53.622Z,94.45
2023-01-25T14:26:28.739Z,94.72
2023-01-25T14:29:14.224Z,94.69
2023-01-25T14:31:46.506Z,95.28
2023-01-25T14:34:21.174Z,95.15
2023-01-25T14:36:59.903Z,94.85
2023-01-25T14:39:30.591Z,94.97
2023-01-25T14:42:04.494Z,94.29
2023-01-25T14:44:36.746Z,95.12
2023-01-25T14:47:24.234Z,94.71
2023-01-25T14:50:06.482Z,96.10
2023-01-25T14:52:35.910Z,96.36
2023-01-25T14:55:16.125Z,94.94
2023-01-25T14:57:46.186Z,95.64
2023-01-25T15:00:36.749Z,95.70
2023-01-25T15:03:07.369Z,95.48
2023-01-25T15:05:38.605Z,96.05
2023-01-25T15:08:26.116Z,95.32
2023-01-25T15:10:59.547Z,96.49
2023-01-25T15:13:33.329Z,96.00
2023-01-25T15:16:07.196Z,97.15
2023-01-25T15:18:45.747Z,95.44
2023-01-25T15:21:25.372Z,96.54
2023-01-25T15:24:04.965Z,96.97
2023-01-25T15:26:39.928Z,96.48
2023-01-25T15:29:15.034Z,97.27
2023-01-25T15:31:45.611Z,96.99
2023-01-25T15:34:17.857Z,96.96
2023-01-25T15:36:57.850Z,98.05
2023-01-25T15:39:28.963Z,97.62
2023-01-25T15:42:01.546Z,97.42
2023-01-25T15:44:31.127Z,96.94
2023-01-25T15:47:03.898Z,97.84
2023-01-25T15:49:35.299Z,97.64
2023-01-25T15:52:06.175Z,97.85
2023-01-25T15:54:39.482Z,98.60
2023-01-25T15:57:36.800Z,98.20
2023-01-25T16:00:10.329Z,97.86
2023-01-25T16:02:42.879Z,98.41
2023-01-25T16:05:12.882Z,98.37
2023-01-25T16:07:46.946Z,98.45
2023-01-25T16:10:25.725Z,98.21
2023-01-25T16:12:55.411Z,98.40
2023-01-25T16:15:26.992Z,96.25
2023-01-25T16:18:14.445Z,96.27
2023-01-25T16:20:45.467Z,97.69
2023-01-25T16:23:23.592Z,98.59
2023-01-25T16:25:58.992Z,98.02
2023-01-25T16:28:34.718Z,100.00
2023-01-25T16:31:08.148Z,100.00
2023-01-25T16:33:52.719Z,100.00
2023-01-25T16:36:25.130Z,99.79
2023-01-25T16:39:04.675Z,99.13
2023-01-25T16:41:37.550Z,98.85
2023-01-25T16:44:08.614Z,97.71
2023-01-25T16:46:45.416Z,98.24
2023-01-25T16:49:19.886Z,99.03
2023-01-25T16:51:50.955Z,98.74
2023-01-25T16:54:36.022Z,98.42
2023-01-25T16:57:19.812Z,97.58
2023-01-25T17:00:07.976Z,99.40
2023-01-25T17:02:44.206Z,99.66
2023-01-25T17:05:34.709Z,99.22
2023-01-25T17:08:15.792Z,98.56
2023-01-25T17:10:49.015Z,97.61
2023-01-25T17:13:36.411Z,99.56
2023-01-25T17:16:14.854Z,99.09
2023-01-25T17:18:45.347Z,99.05
2023-01-25T17:21:21.283Z,98.66
2023-01-25T17:24:08.086Z,99.55
2023-01-25T17:26:49.442Z,97.49
2023-01-25T17:29:35.137Z,97.49
2023-01-25T17:32:07.551Z,97.85
2023-01-25T17:37:31.922Z,99.49
2023-01-25T17:40:03.702Z,99.31
2023-01-25T17:42:45.819Z,99.65
2023-01-25T17:45:17.449Z,100.00
2023-01-25T17:47:51.003Z,100.00
2023-01-25T17:50:34.852Z,99.53
2023-01-25T17:53:17.858Z,99.75
2023-01-25T17:55:51.410Z,99.14
2023-01-25T17:58:26.432Z,98.76
2023-01-25T18:01:13.750Z,98.76
2023-01-25T18:04:00.236Z,98.87
2023-01-25T18:06:44.640Z,100.00
2023-01-25T18:09:32.716Z,99.82
2023-01-25T18:12:11.520Z,99.95
2023-01-25T18:14:54.388Z,99.86
2023-01-25T18:17:36.119Z,99.71
2023-01-25T18:20:11.673Z,99.27
2023-01-25T18:22:53.812Z,99.16
2023-01-25T18:25:44.258Z,100.00
2023-01-25T18:28:17.085Z,99.95
2023-01-25T18:30:56.054Z,99.86
2023-01-25T18:33:30.606Z,99.76
2023-01-25T18:39:05.941Z,98.98
2023-01-25T18:41:40.124Z,98.77
2023-01-25T18:44:11.910Z,99.01
2023-01-25T18:46:44.380Z,98.90
2023-01-25T18:49:23.432Z,98.26
2023-01-25T18:52:19.697Z,98.47
2023-01-25T18:55:08.047Z,99.80
2023-01-25T18:57:50.261Z,99.83
2023-01-25T19:00:36.809Z,100.00
2023-01-25T19:03:13.883Z,100.00
2023-01-25T19:05:57.259Z,100.00
2023-01-25T19:08:49.853Z,100.00
2023-01-25T19:11:35.205Z,100.00
2023-01-25T19:14:24.495Z,100.00
2023-01-25T19:17:23.863Z,100.00
2023-01-25T19:20:07.843Z,100.00
2023-01-25T19:22:45.382Z,100.00
2023-01-25T19:25:35.945Z,100.00
2023-01-25T19:28:17.857Z,100.00
2023-01-25T19:33:42.645Z,100.00
2023-01-25T19:36:20.124Z,99.94
2023-01-25T19:38:54.209Z,99.67
2023-01-25T19:41:38.785Z,99.65
2023-01-25T19:44:28.421Z,99.86
2023-01-25T19:47:09.865Z,100.00
2023-01-25T19:49:45.962Z,100.00
2023-01-25T19:52:41.261Z,100.00
2023-01-25T19:55:14.330Z,100.00
2023-01-25T19:57:48.748Z,100.00
2023-01-25T20:00:32.950Z,100.00
2023-01-25T20:03:29.166Z,100.00
2023-01-25T20:06:22.582Z,100.00
2023-01-25T20:09:02.895Z,100.00
2023-01-25T20:11:36.600Z,100.00
2023-01-25T20:14:22.525Z,100.00
2023-01-25T20:17:02.427Z,100.00
2023-01-25T20:19:45.914Z,100.00
2023-01-25T20:22:35.890Z,100.00
2023-01-25T20:25:21.915Z,100.00
2023-01-25T20:28:01.359Z,100.00
2023-01-25T20:30:35.676Z,100.00
2023-01-25T20:33:08.645Z,100.00
2023-01-25T20:35:50.591Z,100.00
2023-01-25T20:38:32.410Z,100.00
2023-01-25T20:41:13.064Z,100.00
2023-01-25T20:44:16.480Z,100.00
2023-01-25T20:46:56.304Z,100.00
2023-01-25T20:49:32.115Z,100.00
2023-01-25T20:52:22.405Z,100.00
2023-01-25T20:55:10.336Z,100.00
2023-01-25T20:58:01.555Z,100.00
2023-01-25T21:00:33.816Z,100.00
2023-01-25T21:03:08.944Z,100.00
2023-01-25T21:05:48.209Z,100.00
2023-01-25T21:08:52.303Z,100.00
2023-01-25T21:11:27.013Z,100.00
2023-01-25T21:14:05.060Z,100.00
2023-01-25T21:16:49.640Z,100.00
2023-01-25T21:19:31.715Z,100.00
2023-01-25T21:22:08.065Z,100.00
2023-01-25T21:24:55.904Z,100.00
2023-01-25T21:27:32.982Z,100.00
2023-01-25T21:30:06.931Z,100.00
2023-01-25T21:32:39.294Z,100.00
2023-01-25T21:35:11.273Z,100.00
2023-01-25T21:37:51.328Z,100.00
2023-01-25T21:40:22.895Z,100.00
2023-01-25T21:43:03.897Z,100.00
2023-01-25T21:45:52.664Z,100.00
2023-01-25T21:48:37.426Z,100.00
2023-01-25T21:51:29.980Z,100.00
2023-01-25T21:54:05.218Z,100.00
2023-01-25T21:56:39.568Z,100.00
2023-01-25T21:59:11.806Z,100.00
2023-01-25T22:01:50.365Z,100.00
2023-01-25T22:04:25.086Z,100.00
2023-01-25T22:06:56.920Z,100.00
2023-01-25T22:09:35.031Z,100.00
2023-01-25T22:12:08.317Z,100.00
2023-01-25T22:14:40.087Z,100.00
2023-01-25T22:17:09.105Z,100.00
2023-01-25T22:19:40.320Z,100.00
2023-01-25T22:22:09.504Z,100.00
2023-01-25T22:24:41.311Z,100.00
2023-01-25T22:27:32.558Z,100.00
2023-01-25T22:30:06.577Z,100.00
2023-01-25T22:32:37.473Z,100.00
2023-01-25T22:35:09.016Z,100.00
2023-01-25T22:37:51.332Z,100.00
2023-01-25T22:40:33.704Z,100.00
2023-01-25T22:43:12.934Z,100.00
2023-01-25T22:45:59.422Z,100.00
2023-01-25T22:48:41.768Z,100.00
2023-01-25T22:51:19.470Z,100.00
2023-01-25T22:53:48.345Z,100.00
2023-01-25T22:56:27.516Z,100.00
2023-01-25T22:59:02.856Z,100.00
2023-01-25T23:01:41.566Z,100.00
2023-01-25T23:04:11.184Z,100.00
2023-01-25T23:06:40.610Z,100.00
2023-01-25T23:09:10.047Z,100.00
2023-01-25T23:11:51.170Z,100.00
2023-01-25T23:14:41.522Z,100.00
2023-01-25T23:17:29.425Z,100.00
2023-01-25T23:20:00.554Z,100.00
2023-01-25T23:22:37.372Z,100.00
2023-01-25T23:25:10.009Z,100.00
2023-01-25T23:27:41.439Z,100.00
2023-01-25T23:30:44.081Z,100.00
2023-01-25T23:33:27.874Z,100.00
2023-01-25T23:35:59.063Z,100.00
2023-01-25T23:38:30.775Z,100.00
2023-01-25T23:41:31.372Z,100.00
2023-01-25T23:44:10.934Z,100.00
2023-01-25T23:47:03.305Z,100.00
2023-01-25T23:49:44.003Z,100.00
2023-01-25T23:52:23.294Z,100.00
2023-01-25T23:54:59.905Z,100.00
2023-01-25T23:57:33.277Z,100.00
